Viking Sky — LAYU7 — position and weather

sailwx.info

Track history (hours):
 
Tides and Currents Weather Stations Pressure Air Temp Water Temp Dewpoint Dewpoint Depression Visibility Wind Speed Wind Dir Waves Ship Positions

Viking Sky

Last reported at 2019-Aug-18 13:20 UTC. Time now 2019-Aug-20 09:32 UTC.
Position N 62°04' W 006°32'.

Length 228 m; draft 6.7 m.

Type: Passenger vessel. MMSI: 259186000.

Date/timePositionNaut miles runAvg speedWind from/ knotsBaromVisibWave heightAir tempDewpointWater temp
2019-Aug-18 13:20N 62°04' W 006°32'  
2019-Aug-09 04:38N 65°14' W 013°21'1 6.5
2019-Aug-09 04:24N 65°13' W 013°19'3 6.4
2019-Aug-09 04:00N 65°11' W 013°14'5 6.6
2019-Aug-09 03:16N 65°07' W 013°06'2 6.8
2019-Aug-09 03:00N 65°06' W 013°03'7 7.2
2019-Aug-09 02:00N 65°01' W 012°51'3 6.7
2019-Aug-09 01:30N 64°59' W 012°45'4 6.7
2019-Aug-09 00:58N 64°56' W 012°39'4 6.5
2019-Aug-09 00:25N 64°54' W 012°33'5 6.8
2019-Aug-08 23:40N 64°50' W 012°24'3 7.0
2019-Aug-08 23:13N 64°48' W 012°19'  
Track history (hours):
 
Tides and Currents Weather Stations Pressure Air Temp Water Temp Dewpoint Dewpoint Depression Visibility Wind Speed Wind Dir Waves Ship Positions

Viking Sky

Last reported at 2019-Aug-18 13:20 UTC. Time now 2019-Aug-20 09:32 UTC.
Position N 62°04' W 006°32'.

Length 228 m; draft 6.7 m.

Type: Passenger vessel. MMSI: 259186000.

Date/timePositionNaut miles runAvg speedWind from/ knotsBaromVisibWave heightAir tempDewpointWater temp
2019-Aug-18 13:20N 62°04' W 006°32'  
2019-Aug-09 04:38N 65°14' W 013°21'1 6.5
2019-Aug-09 04:24N 65°13' W 013°19'3 6.4
2019-Aug-09 04:00N 65°11' W 013°14'5 6.6
2019-Aug-09 03:16N 65°07' W 013°06'2 6.8
2019-Aug-09 03:00N 65°06' W 013°03'7 7.2
2019-Aug-09 02:00N 65°01' W 012°51'3 6.7
2019-Aug-09 01:30N 64°59' W 012°45'4 6.7
2019-Aug-09 00:58N 64°56' W 012°39'4 6.5
2019-Aug-09 00:25N 64°54' W 012°33'5 6.8
2019-Aug-08 23:40N 64°50' W 012°24'3 7.0
2019-Aug-08 23:13N 64°48' W 012°19'  

Dump ship's entire track history